Time;durP1;ratioP1;P1;durP2;ratioP2;P2;SDS_P1;SDS_P2;PMS_P1;PMS_P2;Temp;Humidity;BMP_temperature;BMP_pressure;BME280_temperature;BME280_humidity;BME280_pressure;Samples;Min_cycle;Max_cycle;Signal;HPM_P1;HPM_P2
2022/07/01 00:02:04;;;;;;;4.03;3.72;;;15.80;99.90;;;16.46;100.00;97962.41;5218387;28;20197;-65
2022/07/01 00:04:38;;;;;;;3.67;3.38;;;15.70;99.90;;;16.46;100.00;97968.47;5218294;28;20598;-66
2022/07/01 00:07:11;;;;;;;3.85;3.40;;;15.80;99.90;;;16.42;100.00;97969.16;5220433;28;20215;-64
2022/07/01 00:09:45;;;;;;;3.53;3.22;;;15.70;99.90;;;16.45;100.00;97979.56;5218909;28;20210;-64
2022/07/01 00:12:20;;;;;;;5.22;3.38;;;15.80;99.90;;;16.40;100.00;97978.56;5221096;28;20690;-66
2022/07/01 00:14:53;;;;;;;4.57;2.83;;;15.60;99.90;;;16.29;100.00;97980.75;5221044;28;20630;-65
2022/07/01 00:17:26;;;;;;;6.45;3.40;;;15.50;99.90;;;16.23;100.00;97975.38;5219870;28;20547;-66
2022/07/01 00:20:00;;;;;;;4.15;3.38;;;15.50;99.90;;;16.22;100.00;97963.28;5216200;28;20212;-65
2022/07/01 00:22:34;;;;;;;4.00;3.17;;;15.50;99.90;;;16.23;100.00;97970.22;5218632;28;20697;-65
2022/07/01 00:25:09;;;;;;;3.17;2.65;;;15.50;99.90;;;16.04;100.00;97966.06;5218171;28;20686;-65
2022/07/01 00:27:43;;;;;;;3.92;2.50;;;15.40;99.90;;;16.03;100.00;97961.72;5219454;28;20278;-65
2022/07/01 00:30:17;;;;;;;3.50;2.42;;;15.30;99.90;;;15.93;100.00;97957.03;5219622;28;20231;-65
2022/07/01 00:32:52;;;;;;;3.22;2.45;;;15.20;99.90;;;15.90;100.00;97956.94;5218000;28;20224;-65
2022/07/01 00:35:26;;;;;;;4.03;2.50;;;15.10;99.90;;;15.81;100.00;97951.44;5216291;28;20216;-65
2022/07/01 00:37:59;;;;;;;4.60;2.80;;;15.10;99.90;;;15.68;100.00;97943.25;5218216;28;20212;-63
2022/07/01 00:40:32;;;;;;;6.57;3.25;;;15.00;99.90;;;15.74;100.00;97970.94;5219099;28;20259;-65
2022/07/01 00:43:07;;;;;;;4.20;2.75;;;15.20;99.90;;;15.69;100.00;97986.22;5216402;28;20200;-66
2022/07/01 00:45:45;;;;;;;4.53;3.15;;;15.10;99.90;;;15.74;100.00;97984.72;5220172;28;20239;-65
2022/07/01 00:48:20;;;;;;;3.53;2.95;;;15.20;99.90;;;15.80;100.00;97980.63;5219842;28;20193;-66
2022/07/01 00:50:53;;;;;;;3.22;2.78;;;15.20;99.90;;;15.80;100.00;97970.31;5217348;28;20205;-64
2022/07/01 00:53:29;;;;;;;2.80;2.60;;;15.10;99.90;;;15.72;100.00;97968.28;5214810;28;20258;-65
2022/07/01 00:56:02;;;;;;;5.68;2.72;;;14.90;99.90;;;15.70;100.00;97959.63;5217236;28;20689;-64
2022/07/01 00:58:37;;;;;;;2.42;2.22;;;14.90;99.90;;;15.60;100.00;97948.88;5221719;28;20197;-65
2022/07/01 01:01:10;;;;;;;2.30;2.03;;;14.80;99.90;;;15.57;100.00;97936.75;5217741;28;20204;-65
2022/07/01 01:03:44;;;;;;;2.80;2.30;;;14.90;99.90;;;15.59;100.00;97923.91;5216691;28;20573;-65
2022/07/01 01:06:17;;;;;;;3.05;2.30;;;14.90;99.90;;;15.60;100.00;97908.53;5214996;28;20264;-65
2022/07/01 01:08:51;;;;;;;2.60;2.28;;;14.80;99.90;;;15.53;100.00;97888.50;5218763;28;20200;-65
2022/07/01 01:11:24;;;;;;;3.25;2.20;;;14.70;99.90;;;15.49;100.00;97879.78;5216988;28;20197;-66
2022/07/01 01:13:59;;;;;;;2.15;2.00;;;14.70;99.90;;;15.42;100.00;97843.41;5217166;28;20221;-66
2022/07/01 01:16:33;;;;;;;2.60;2.40;;;14.60;99.90;;;15.27;100.00;97824.00;5214444;28;20220;-66
2022/07/01 01:19:07;;;;;;;2.28;2.08;;;14.50;99.90;;;15.16;100.00;97807.25;5214841;28;20224;-65
2022/07/01 01:21:42;;;;;;;2.42;2.08;;;14.40;99.90;;;15.06;100.00;97807.75;5218419;28;20436;-65
2022/07/01 01:24:15;;;;;;;2.55;2.20;;;14.30;99.90;;;14.95;100.00;97816.75;5214655;28;20208;-64
2022/07/01 01:26:48;;;;;;;2.40;2.20;;;14.30;99.90;;;14.99;100.00;97821.16;5219992;28;20204;-65
2022/07/01 01:29:22;;;;;;;2.60;2.13;;;14.40;99.90;;;15.06;100.00;97830.91;5216886;28;20213;-66
2022/07/01 01:31:55;;;;;;;2.78;1.70;;;14.40;99.90;;;15.00;100.00;97825.53;5217050;28;20519;-65
2022/07/01 01:34:28;;;;;;;2.83;1.95;;;14.40;99.90;;;14.97;100.00;97834.00;5216418;28;20201;-65
2022/07/01 01:37:04;;;;;;;2.47;2.28;;;14.30;99.90;;;15.01;100.00;97835.00;5217051;28;20210;-65
2022/07/01 01:39:38;;;;;;;2.53;2.03;;;14.40;99.90;;;14.95;100.00;97837.31;5216554;28;20262;-64
2022/07/01 01:42:11;;;;;;;2.47;2.10;;;14.30;99.90;;;15.00;100.00;97843.53;5218254;28;20254;-65
2022/07/01 01:44:44;;;;;;;1.77;1.67;;;14.30;99.90;;;14.92;100.00;97839.78;5212034;28;20229;-65
2022/07/01 01:47:17;;;;;;;2.13;1.95;;;14.20;99.90;;;14.80;100.00;97823.03;5221164;28;20338;-65
2022/07/01 01:49:51;;;;;;;2.10;2.00;;;14.10;99.90;;;14.81;100.00;97823.91;5213665;28;20200;-65
2022/07/01 01:52:25;;;;;;;3.33;2.10;;;14.20;99.90;;;14.80;100.00;97835.91;5216736;28;20197;-65
2022/07/01 01:54:58;;;;;;;2.80;2.28;;;14.20;99.90;;;14.82;100.00;97849.72;5220994;28;20225;-65
2022/07/01 01:57:32;;;;;;;2.78;1.98;;;14.20;99.90;;;14.86;100.00;97861.88;5215201;28;20206;-65
2022/07/01 02:00:07;;;;;;;2.30;2.08;;;14.20;99.90;;;14.92;100.00;97870.66;5214510;28;20267;-66
2022/07/01 02:02:41;;;;;;;2.08;1.83;;;14.20;99.90;;;14.89;100.00;97880.84;5213563;28;20537;-65
2022/07/01 02:05:15;;;;;;;2.92;1.80;;;14.30;99.90;;;14.77;100.00;97884.66;5217404;28;20229;-65
2022/07/01 02:07:50;;;;;;;2.45;2.25;;;14.20;99.90;;;14.63;100.00;97890.94;5213847;28;20597;-65
2022/07/01 02:10:23;;;;;;;2.35;2.13;;;13.90;99.90;;;14.71;100.00;97912.72;5215732;28;20682;-65
2022/07/01 02:12:57;;;;;;;2.28;2.10;;;14.10;99.90;;;14.81;100.00;97909.69;5212473;28;20222;-65
2022/07/01 02:15:31;;;;;;;2.72;2.00;;;14.10;99.90;;;14.86;100.00;97915.91;5220009;28;20224;-65
2022/07/01 02:18:05;;;;;;;1.85;1.70;;;14.20;99.90;;;14.82;100.00;97911.47;5216725;28;20201;-66
2022/07/01 02:20:38;;;;;;;2.13;2.00;;;14.10;99.90;;;14.80;100.00;97907.94;5219307;28;20209;-65
2022/07/01 02:23:13;;;;;;;2.72;1.90;;;14.10;99.90;;;14.79;100.00;97913.94;5215156;28;20194;-64
2022/07/01 02:25:47;;;;;;;2.10;1.90;;;14.00;99.90;;;14.83;100.00;97912.34;5216708;28;20221;-64
2022/07/01 02:28:20;;;;;;;2.22;2.03;;;14.10;99.90;;;14.79;100.00;97906.22;5224610;28;20566;-65
2022/07/01 02:30:54;;;;;;;2.28;1.90;;;14.10;99.90;;;14.86;100.00;97918.50;5221777;28;20202;-65
2022/07/01 02:33:27;;;;;;;2.17;2.00;;;14.20;99.90;;;14.89;100.00;97919.44;5219148;28;20271;-66
2022/07/01 02:36:00;;;;;;;1.98;1.88;;;14.20;99.90;;;14.84;100.00;97909.81;5221471;28;21520;-65
2022/07/01 02:38:35;;;;;;;2.53;2.22;;;14.20;99.90;;;14.92;100.00;97906.69;5220375;28;20276;-65
2022/07/01 02:41:09;;;;;;;2.92;1.80;;;14.30;99.90;;;14.94;100.00;97899.94;5218729;28;20209;-66
2022/07/01 02:43:43;;;;;;;2.20;2.10;;;14.30;99.90;;;14.96;100.00;97893.13;5218710;28;20201;-65
2022/07/01 02:46:17;;;;;;;2.30;2.10;;;14.30;99.90;;;14.96;100.00;97901.72;5218067;28;20278;-65
2022/07/01 02:48:50;;;;;;;2.47;2.28;;;14.20;99.90;;;14.97;100.00;97900.06;5219272;28;20250;-65
2022/07/01 02:51:23;;;;;;;2.50;2.30;;;14.30;99.90;;;14.99;100.00;97906.13;5219189;28;20625;-65
2022/07/01 02:53:58;;;;;;;1.75;1.65;;;14.30;99.90;;;14.98;100.00;97922.38;5217835;28;20208;-65
2022/07/01 02:56:31;;;;;;;2.42;2.13;;;14.30;99.90;;;15.01;100.00;97927.66;5220020;28;20735;-66
2022/07/01 02:59:04;;;;;;;2.50;2.30;;;14.40;99.90;;;15.04;100.00;97935.50;5223003;28;20209;-65
2022/07/01 03:01:38;;;;;;;2.67;2.47;;;14.40;99.90;;;15.03;100.00;97942.34;5224735;28;20251;-65
2022/07/01 03:04:11;;;;;;;2.25;1.98;;;14.30;99.90;;;15.05;100.00;97934.69;5224743;28;20577;-65
2022/07/01 03:06:44;;;;;;;2.20;2.03;;;14.30;99.90;;;15.04;100.00;97938.06;5220788;28;20221;-66
2022/07/01 03:09:19;;;;;;;2.33;1.73;;;14.30;99.90;;;15.01;100.00;97937.97;5223645;28;20286;-65
2022/07/01 03:11:52;;;;;;;2.58;1.98;;;14.30;99.90;;;15.01;100.00;97943.09;5215509;28;20945;-65
2022/07/01 03:14:25;;;;;;;2.10;1.98;;;14.30;99.90;;;14.93;100.00;97935.06;5216713;28;20214;-65
2022/07/01 03:16:59;;;;;;;2.13;1.90;;;14.20;99.90;;;14.93;100.00;97939.34;5219231;28;20679;-66
2022/07/01 03:19:32;;;;;;;3.35;2.45;;;14.20;99.90;;;14.92;100.00;97941.03;5221798;28;20201;-65
2022/07/01 03:22:05;;;;;;;1.83;1.73;;;14.20;99.90;;;14.98;100.00;97948.13;5220749;28;20282;-65
2022/07/01 03:24:40;;;;;;;2.17;2.08;;;14.30;99.90;;;14.96;100.00;97954.91;5216902;28;20217;-66
2022/07/01 03:27:13;;;;;;;2.08;1.98;;;14.20;99.90;;;14.96;100.00;97949.75;5216796;28;20432;-66
2022/07/01 03:29:47;;;;;;;4.00;2.15;;;14.30;99.90;;;14.95;100.00;97961.75;5222628;28;20205;-65
2022/07/01 03:32:20;;;;;;;3.22;2.20;;;14.30;99.90;;;14.97;100.00;97972.13;5217627;28;20732;-65
2022/07/01 03:34:54;;;;;;;2.67;1.90;;;14.30;99.90;;;15.01;100.00;97969.72;5221616;28;20691;-66
2022/07/01 03:37:27;;;;;;;2.50;2.30;;;14.30;99.90;;;15.02;100.00;97966.34;5220985;28;20198;-65
2022/07/01 03:40:02;;;;;;;2.03;1.90;;;14.20;99.90;;;14.97;100.00;97965.28;5219497;28;20202;-66
2022/07/01 03:42:35;;;;;;;2.83;2.58;;;14.20;99.90;;;14.93;100.00;97972.78;5219907;28;20227;-64
2022/07/01 03:45:09;;;;;;;2.50;2.22;;;14.20;99.90;;;14.99;100.00;97988.47;5222407;28;20213;-65
2022/07/01 03:47:47;;;;;;;2.88;2.28;;;14.30;99.90;;;15.03;100.00;98003.25;5218722;28;20193;-65
2022/07/01 03:50:23;;;;;;;2.50;2.30;;;14.20;99.90;;;15.00;100.00;98006.59;5221322;28;20193;-64
2022/07/01 03:55:49;;;;;;;2.67;2.40;;;14.20;99.90;;;15.05;100.00;98014.47;5218683;28;20225;-67
2022/07/01 03:58:22;;;;;;;2.40;2.20;;;14.30;99.90;;;15.01;100.00;98010.03;5218073;28;20616;-65
2022/07/01 04:00:55;;;;;;;2.50;2.30;;;14.30;99.90;;;14.98;100.00;98009.91;5217748;28;20506;-65
2022/07/01 04:03:28;;;;;;;3.30;2.20;;;14.10;99.90;;;14.97;100.00;98024.47;5221054;28;20219;-65
2022/07/01 04:06:02;;;;;;;2.22;2.03;;;14.20;99.90;;;15.03;100.00;98029.00;5222166;28;20229;-67
2022/07/01 04:08:35;;;;;;;2.60;2.40;;;14.20;99.90;;;15.05;100.00;98027.34;5217979;28;20547;-65
2022/07/01 04:11:10;;;;;;;2.20;2.03;;;14.20;99.90;;;15.03;100.00;98031.56;5217959;28;20193;-65
2022/07/01 04:13:46;;;;;;;3.03;2.78;;;14.30;99.90;;;15.02;100.00;98052.97;5220059;28;20201;-64
2022/07/01 04:16:20;;;;;;;4.97;2.15;;;14.30;99.90;;;15.01;100.00;98067.53;5218631;28;20229;-65
2022/07/01 04:18:54;;;;;;;2.60;2.40;;;14.30;99.90;;;15.08;100.00;98055.84;5216806;28;20240;-65
2022/07/01 04:24:18;;;;;;;3.05;2.63;;;14.30;99.90;;;15.09;100.00;98067.88;5219683;28;20189;-64
2022/07/01 04:26:52;;;;;;;2.70;2.50;;;14.40;99.90;;;15.10;100.00;98067.03;5216955;28;20615;-65
2022/07/01 04:29:27;;;;;;;3.08;2.75;;;14.40;99.90;;;15.11;100.00;98063.69;5217748;28;20208;-66
2022/07/01 04:32:00;;;;;;;3.00;2.80;;;14.30;99.90;;;15.07;100.00;98066.91;5215200;28;20201;-65
2022/07/01 04:34:33;;;;;;;3.28;3.00;;;14.30;99.90;;;15.09;100.00;98061.03;5217724;28;20274;-65
2022/07/01 04:37:06;;;;;;;3.33;3.10;;;14.40;99.90;;;15.15;100.00;98059.53;5217719;28;20621;-65
2022/07/01 04:39:40;;;;;;;3.55;3.28;;;14.40;99.90;;;15.16;100.00;98056.13;5221902;28;20197;-64
2022/07/01 04:42:15;;;;;;;3.80;3.40;;;14.40;99.90;;;15.21;100.00;98058.09;5215905;28;20206;-65
2022/07/01 04:44:48;;;;;;;3.45;3.25;;;14.50;99.90;;;15.25;100.00;98070.28;5215082;28;20275;-65
2022/07/01 04:47:23;;;;;;;3.95;3.30;;;14.50;99.90;;;15.25;100.00;98085.75;5216940;28;20196;-64
2022/07/01 04:49:56;;;;;;;2.95;2.75;;;14.50;99.90;;;15.30;100.00;98091.94;5213907;28;20197;-64
2022/07/01 04:52:29;;;;;;;3.80;3.42;;;14.50;99.90;;;15.35;100.00;98099.00;5216195;28;20209;-63
2022/07/01 04:55:02;;;;;;;3.05;2.85;;;14.50;99.90;;;15.37;100.00;98094.81;5215417;28;20221;-61
2022/07/01 04:57:37;;;;;;;3.03;2.83;;;14.50;99.90;;;15.36;100.00;98095.59;5219772;28;20247;-62
2022/07/01 05:00:12;;;;;;;2.85;2.63;;;14.50;99.90;;;15.35;100.00;98086.13;5222598;28;20638;-63
2022/07/01 05:02:45;;;;;;;3.03;2.72;;;14.40;99.90;;;15.27;100.00;98081.50;5222309;28;20208;-60
2022/07/01 05:05:18;;;;;;;3.08;2.88;;;14.40;99.90;;;15.29;100.00;98069.59;5215471;28;20236;-62
2022/07/01 05:07:51;;;;;;;3.70;3.50;;;14.40;99.90;;;15.34;100.00;98077.53;5221191;28;20209;-62
2022/07/01 05:10:24;;;;;;;4.28;3.88;;;14.50;99.90;;;15.33;100.00;98080.91;5220647;28;20666;-62
2022/07/01 05:12:59;;;;;;;3.80;3.50;;;14.40;99.90;;;15.31;100.00;98083.44;5219012;28;20636;-63
2022/07/01 05:15:32;;;;;;;3.67;3.42;;;14.40;99.90;;;15.27;100.00;98085.78;5216998;28;20220;-63
2022/07/01 05:23:47;;;;;;;4.25;4.00;;;14.40;99.90;;;15.25;100.00;98103.78;5216791;28;20193;-62
2022/07/01 05:26:20;;;;;;;3.92;3.72;;;14.40;99.90;;;15.13;100.00;98113.53;5222317;28;20685;-62
2022/07/01 05:28:55;;;;;;;4.30;4.00;;;14.20;99.90;;;15.14;100.00;98104.09;5220593;28;20197;-63
2022/07/01 05:31:28;;;;;;;4.20;3.90;;;14.30;99.90;;;15.20;100.00;98099.25;5216108;28;20731;-63
2022/07/01 05:34:01;;;;;;;4.85;4.43;;;14.30;99.90;;;15.19;100.00;98093.19;5217425;28;20209;-62
2022/07/01 05:36:37;;;;;;;4.32;4.03;;;14.40;99.90;;;15.23;100.00;98102.81;5214738;28;20217;-63
2022/07/01 05:39:11;;;;;;;3.75;3.50;;;14.40;99.90;;;15.26;100.00;98095.22;5219076;28;20197;-63
2022/07/01 05:41:45;;;;;;;3.75;3.55;;;14.40;99.90;;;15.25;100.00;98103.78;5218237;28;20197;-62
2022/07/01 05:44:21;;;;;;;4.00;3.70;;;14.30;99.90;;;15.29;100.00;98100.50;5218211;28;20198;-64
2022/07/01 05:46:54;;;;;;;4.35;4.05;;;14.30;99.90;;;15.33;100.00;98101.50;5219016;28;20270;-62
2022/07/01 05:49:27;;;;;;;5.00;4.60;;;14.40;99.90;;;15.23;100.00;98107.97;5216751;28;20201;-63
2022/07/01 05:52:00;;;;;;;4.80;4.40;;;14.30;99.90;;;15.26;100.00;98107.22;5214466;28;20205;-61
2022/07/01 05:54:34;;;;;;;4.95;4.53;;;14.30;99.90;;;15.29;100.00;98109.94;5211611;28;20198;-62
2022/07/01 05:57:07;;;;;;;4.93;4.63;;;14.20;99.90;;;15.21;100.00;98096.72;5218618;28;20721;-63
2022/07/01 05:59:43;;;;;;;5.15;4.75;;;14.30;99.90;;;15.18;100.00;98106.88;5220523;28;20202;-63
2022/07/01 06:02:16;;;;;;;4.93;4.63;;;14.20;99.90;;;15.19;100.00;98108.63;5222233;28;20205;-63
2022/07/01 06:04:49;;;;;;;5.32;5.03;;;14.20;99.90;;;15.16;100.00;98113.66;5218251;28;20299;-63
2022/07/01 06:07:22;;;;;;;5.45;5.05;;;14.30;99.90;;;15.18;100.00;98114.59;5219373;28;20549;-61
2022/07/01 06:09:56;;;;;;;5.75;5.35;;;14.20;99.90;;;15.12;100.00;98100.59;5218742;28;20202;-62
2022/07/01 06:12:29;;;;;;;5.57;5.00;;;14.10;99.90;;;15.02;100.00;98099.31;5220072;28;20247;-63
2022/07/01 06:15:05;;;;;;;5.93;5.35;;;14.10;99.90;;;15.03;100.00;98096.81;5221950;28;20225;-66
2022/07/01 06:17:40;;;;;;;5.68;5.18;;;14.20;99.90;;;15.01;100.00;98102.69;5225214;28;20563;-62
2022/07/01 06:20:13;;;;;;;6.38;5.85;;;14.10;99.90;;;14.84;100.00;98107.09;5221431;28;20196;-63
2022/07/01 06:22:47;;;;;;;5.45;5.05;;;14.00;99.90;;;14.86;100.00;98114.09;5225580;28;20205;-62
2022/07/01 06:25:20;;;;;;;5.75;5.30;;;14.10;99.90;;;14.80;100.00;98126.69;5222631;28;20228;-62
2022/07/01 06:27:53;;;;;;;6.28;5.80;;;14.00;99.90;;;14.75;100.00;98120.44;5223431;28;20209;-63
2022/07/01 06:30:28;;;;;;;5.90;5.43;;;14.00;99.90;;;14.82;100.00;98122.50;5225643;28;20251;-61
2022/07/01 06:33:01;;;;;;;7.32;6.72;;;14.10;99.90;;;14.90;100.00;98145.09;5223401;28;20197;-64
2022/07/01 06:35:35;;;;;;;7.75;7.13;;;14.20;99.90;;;14.91;100.00;98137.47;5224140;28;20267;-63
2022/07/01 06:38:09;;;;;;;7.47;6.97;;;14.20;99.90;;;14.95;100.00;98144.50;5221547;28;20200;-63
2022/07/01 06:40:42;;;;;;;7.25;6.75;;;14.30;99.90;;;14.96;100.00;98148.81;5224365;28;20243;-62
2022/07/01 06:43:15;;;;;;;8.43;7.63;;;14.30;99.90;;;14.99;100.00;98150.66;5222734;28;20205;-60
2022/07/01 06:45:49;;;;;;;8.43;7.65;;;14.30;99.90;;;15.01;100.00;98154.19;5221372;28;20292;-61
2022/07/01 06:48:23;;;;;;;7.70;7.03;;;14.30;99.90;;;15.06;100.00;98143.28;5219944;28;20630;-63
2022/07/01 06:50:56;;;;;;;7.85;6.85;;;14.40;99.90;;;15.10;100.00;98150.31;5219847;28;20204;-62
2022/07/01 06:53:29;;;;;;;7.07;6.50;;;14.40;99.90;;;15.18;100.00;98150.66;5220748;28;20623;-62
2022/07/01 06:56:02;;;;;;;8.40;7.70;;;14.30;99.90;;;15.18;100.00;98142.94;5221982;28;20271;-62
2022/07/01 06:58:35;;;;;;;7.60;6.90;;;14.40;99.90;;;15.17;100.00;98141.19;5217866;28;20212;-63
2022/07/01 07:01:11;;;;;;;7.88;7.22;;;14.40;99.90;;;15.19;100.00;98142.09;5222407;28;20208;-62
2022/07/01 07:03:44;;;;;;;7.47;6.88;;;14.40;99.90;;;15.21;100.00;98157.63;5219959;28;20242;-63
2022/07/01 07:06:17;;;;;;;8.52;7.82;;;14.40;99.90;;;15.19;100.00;98161.84;5220784;28;20252;-64
2022/07/01 07:08:51;;;;;;;7.13;6.57;;;14.40;99.90;;;15.24;100.00;98163.78;5217581;28;20205;-63
2022/07/01 07:11:24;;;;;;;7.25;6.72;;;14.50;99.90;;;15.24;100.00;98163.78;5215452;28;20642;-64
2022/07/01 07:13:58;;;;;;;7.68;6.90;;;14.50;99.90;;;15.28;100.00;98167.38;5218369;28;20217;-65
2022/07/01 07:16:32;;;;;;;6.60;6.10;;;14.50;99.90;;;15.28;100.00;98170.88;5225685;28;20217;-64
2022/07/01 07:19:05;;;;;;;5.97;5.47;;;14.50;99.90;;;15.31;100.00;98176.16;5224953;28;20200;-63
2022/07/01 07:21:38;;;;;;;5.97;5.50;;;14.50;99.90;;;15.32;100.00;98182.16;5219891;28;20201;-63
2022/07/01 07:24:11;;;;;;;6.72;6.28;;;14.50;99.90;;;15.26;100.00;98180.19;5222404;28;20205;-61
2022/07/01 07:26:45;;;;;;;6.43;5.82;;;14.50;99.90;;;15.31;100.00;98180.41;5216820;28;20220;-64
2022/07/01 07:29:18;;;;;;;6.45;5.95;;;14.50;99.90;;;15.32;100.00;98188.19;5221838;28;20201;-63
2022/07/01 07:31:52;;;;;;;6.07;5.57;;;14.50;99.90;;;15.32;100.00;98190.78;5218960;28;20550;-62
2022/07/01 07:34:25;;;;;;;6.63;6.03;;;14.50;99.90;;;15.33;100.00;98184.78;5225125;28;20208;-63
2022/07/01 07:36:59;;;;;;;6.50;6.00;;;14.60;99.90;;;15.32;100.00;98188.19;5221661;28;20306;-62
2022/07/01 07:39:32;;;;;;;6.28;5.75;;;14.60;99.90;;;15.35;100.00;98194.31;5221893;28;20201;-60
2022/07/01 07:42:06;;;;;;;6.18;5.78;;;14.50;99.90;;;15.31;100.00;98191.59;5221657;28;20193;-62
2022/07/01 07:44:39;;;;;;;5.55;5.15;;;14.50;99.90;;;15.33;100.00;98205.41;5219131;28;20218;-60
2022/07/01 07:47:14;;;;;;;6.57;6.07;;;14.60;99.90;;;15.37;100.00;98196.13;5218662;28;20197;-62
2022/07/01 07:49:47;;;;;;;5.75;5.25;;;14.60;99.90;;;15.34;100.00;98190.84;5218720;28;20227;-61
2022/07/01 07:52:20;;;;;;;5.35;4.95;;;14.60;99.90;;;15.32;100.00;98188.19;5220293;28;20247;-62
2022/07/01 07:54:53;;;;;;;5.55;5.15;;;14.50;99.90;;;15.33;100.00;98194.22;5216572;28;20230;-62
2022/07/01 07:57:27;;;;;;;5.47;4.82;;;14.50;99.90;;;15.26;100.00;98187.94;5223251;28;20298;-62
2022/07/01 08:00:00;;;;;;;4.63;4.22;;;14.50;99.90;;;15.30;100.00;98184.66;5211811;28;20663;-59
2022/07/01 08:02:35;;;;;;;3.88;3.65;;;14.50;99.90;;;15.25;100.00;98186.19;5214596;28;20197;-61
2022/07/01 08:05:10;;;;;;;4.30;3.50;;;14.40;99.90;;;15.31;100.00;98191.59;5220787;28;20232;-63
2022/07/01 08:07:44;;;;;;;4.30;3.97;;;14.50;99.90;;;15.26;100.00;98218.84;5217661;28;20208;-63
2022/07/01 08:10:17;;;;;;;4.28;3.97;;;14.50;99.90;;;15.29;100.00;98221.53;5215314;28;20206;-62
2022/07/01 08:12:50;;;;;;;4.07;3.78;;;14.60;99.90;;;15.33;100.00;98220.84;5220953;28;20228;-63
2022/07/01 08:15:24;;;;;;;4.38;4.05;;;14.50;99.90;;;15.43;100.00;98221.28;5219102;28;20213;-63
2022/07/01 08:17:58;;;;;;;4.43;4.13;;;14.70;99.90;;;15.44;100.00;98223.03;5217893;28;20251;-61
2022/07/01 08:20:31;;;;;;;3.90;3.60;;;14.70;99.90;;;15.46;100.00;98216.25;5214209;28;20556;-63
2022/07/01 08:23:05;;;;;;;6.25;5.63;;;14.70;99.90;;;15.56;100.00;98202.94;5216122;28;20562;-63
2022/07/01 08:25:38;;;;;;;13.32;11.88;;;14.70;99.90;;;15.51;100.00;98210.50;5220707;28;20220;-61
2022/07/01 08:28:11;;;;;;;6.68;6.05;;;14.70;99.90;;;15.52;100.00;98212.25;5218022;28;20639;-62
2022/07/01 08:30:46;;;;;;;3.65;3.35;;;14.70;99.90;;;15.57;100.00;98212.47;5218315;28;20239;-59
2022/07/01 08:33:21;;;;;;;4.53;4.22;;;14.70;99.90;;;15.53;100.00;98214.00;5216516;28;20209;-63
2022/07/01 08:35:54;;;;;;;3.58;3.38;;;14.70;99.90;;;15.57;100.00;98212.47;5217657;28;20577;-63
2022/07/01 08:38:27;;;;;;;3.35;3.15;;;14.80;99.90;;;15.64;100.00;98211.88;5214498;28;20234;-63
2022/07/01 08:41:01;;;;;;;3.80;3.40;;;14.90;99.90;;;15.64;100.00;98221.31;5218862;28;20671;-59
2022/07/01 08:43:36;;;;;;;3.85;3.13;;;14.90;99.90;;;15.65;100.00;98223.97;5220275;28;20241;-63
2022/07/01 08:46:09;;;;;;;3.45;3.20;;;14.80;99.90;;;15.63;100.00;98228.19;5213584;28;20637;-61
2022/07/01 08:48:45;;;;;;;3.20;2.90;;;14.90;99.90;;;15.63;100.00;98224.72;5221120;28;20575;-62
2022/07/01 08:51:18;;;;;;;3.75;3.45;;;14.80;99.90;;;15.69;100.00;98225.88;5213592;28;20217;-61
2022/07/01 08:53:52;;;;;;;4.22;3.30;;;14.90;99.90;;;15.70;100.00;98230.22;5216322;28;20550;-59
2022/07/01 08:56:45;;;;;;;3.72;3.42;;;14.90;99.90;;;15.67;100.00;98230.06;5214806;28;20229;-59
2022/07/01 08:59:24;;;;;;;4.43;3.75;;;14.90;99.90;;;15.70;100.00;98237.94;5217128;28;20224;-62
2022/07/01 09:01:59;;;;;;;4.20;3.80;;;14.90;99.90;;;15.74;100.00;98244.13;5214578;28;20205;-63
2022/07/01 09:04:34;;;;;;;4.80;4.10;;;14.90;99.90;;;15.74;100.00;98255.31;5219612;28;20525;-61
2022/07/01 09:07:10;;;;;;;4.15;3.80;;;14.90;99.90;;;15.76;100.00;98258.81;5220193;28;20246;-62
2022/07/01 09:09:44;;;;;;;3.58;3.28;;;14.90;99.90;;;15.75;100.00;98254.50;5217629;28;20698;-64
2022/07/01 09:12:17;;;;;;;3.70;3.40;;;14.80;99.90;;;15.72;100.00;98246.63;5216484;28;20201;-62
2022/07/01 09:14:51;;;;;;;3.78;3.50;;;14.80;99.90;;;15.72;100.00;98246.63;5218259;28;20279;-62
2022/07/01 09:17:25;;;;;;;3.47;3.28;;;14.80;99.90;;;15.63;100.00;98255.66;5219880;28;20269;-62
2022/07/01 09:19:59;;;;;;;3.60;3.30;;;14.80;99.90;;;15.65;100.00;98260.06;5215837;28;20551;-65
2022/07/01 09:22:36;;;;;;;3.58;3.28;;;14.80;99.90;;;15.68;100.00;98252.50;5218188;28;20200;-63
2022/07/01 09:25:14;;;;;;;3.47;3.17;;;14.90;99.90;;;15.69;100.00;98256.81;5219456;28;20217;-63
2022/07/01 09:28:03;;;;;;;3.67;3.38;;;14.90;99.90;;;15.79;100.00;98262.34;5215926;28;20189;-63
2022/07/01 09:30:38;;;;;;;3.45;3.13;;;15.00;99.90;;;15.84;100.00;98260.88;5221045;28;20628;-63
2022/07/01 09:33:17;;;;;;;3.40;3.20;;;15.10;99.90;;;15.91;100.00;98257.72;5220311;28;20200;-63
2022/07/01 09:35:52;;;;;;;3.10;2.90;;;15.10;99.90;;;15.90;100.00;98258.56;5219612;28;20228;-63
2022/07/01 09:38:27;;;;;;;3.15;2.95;;;15.00;99.90;;;15.86;100.00;98254.09;5224280;28;20216;-63
2022/07/01 09:41:11;;;;;;;7.03;6.43;;;15.00;99.90;;;15.86;100.00;98259.25;5224218;28;20221;-64
2022/07/01 09:43:44;;;;;;;4.20;3.90;;;15.00;99.90;;;15.83;100.00;98270.31;5222811;28;20193;-63
2022/07/01 09:46:18;;;;;;;3.50;3.20;;;15.10;99.90;;;15.82;100.00;98273.69;5220668;28;20229;-63
2022/07/01 09:48:51;;;;;;;4.10;3.70;;;15.00;99.90;;;15.81;100.00;98271.94;5217426;28;20193;-64
2022/07/01 09:51:26;;;;;;;4.13;3.72;;;15.10;99.90;;;15.79;100.00;98268.38;5220257;28;20216;-64
2022/07/01 09:53:59;;;;;;;4.90;3.80;;;15.10;99.90;;;15.78;100.00;98276.94;5217786;28;20204;-62
2022/07/01 09:56:32;;;;;;;3.30;3.10;;;15.10;99.90;;;15.75;100.00;98267.38;5222410;28;20658;-64
2022/07/01 09:59:05;;;;;;;3.60;3.40;;;15.00;99.90;;;15.67;100.00;98273.88;5220429;28;20201;-63
2022/07/01 10:01:40;;;;;;;4.05;3.75;;;15.00;99.90;;;15.64;100.00;98270.28;5225800;28;20210;-64
2022/07/01 10:04:15;;;;;;;3.65;3.40;;;15.00;99.90;;;15.58;100.00;98275.16;5224571;28;20567;-63
2022/07/01 10:07:18;;;;;;;4.10;3.85;;;15.00;99.90;;;15.49;100.00;98265.34;5214710;28;20258;-63
2022/07/01 10:10:22;;;;;;;4.45;4.00;;;14.90;99.90;;;15.45;100.00;98271.16;5220820;28;20237;-63
2022/07/01 10:12:57;;;;;;;4.20;3.80;;;14.90;99.90;;;15.42;100.00;98282.19;5216887;28;20208;-62
2022/07/01 10:15:32;;;;;;;4.78;4.47;;;14.80;99.90;;;15.39;100.00;98276.03;5223973;28;20330;-63
2022/07/01 10:18:05;;;;;;;3.80;3.50;;;14.80;99.90;;;15.35;100.00;98279.31;5222505;28;20220;-62
2022/07/01 10:20:38;;;;;;;4.82;4.40;;;14.80;99.90;;;15.33;100.00;98262.06;5218357;28;20666;-62
2022/07/01 10:23:13;;;;;;;4.68;4.28;;;14.80;99.90;;;15.30;100.00;98251.63;5217760;28;20197;-63
2022/07/01 10:25:48;;;;;;;4.60;4.30;;;14.80;99.90;;;15.37;100.00;98267.38;5225559;28;20626;-63
2022/07/01 10:28:25;;;;;;;4.60;4.20;;;14.90;99.90;;;15.37;100.00;98275.13;5218068;28;20194;-63
2022/07/01 10:31:02;;;;;;;5.28;4.78;;;14.80;99.90;;;15.42;100.00;98297.66;5221872;28;20228;-63
2022/07/01 10:33:45;;;;;;;6.05;5.15;;;14.90;99.90;;;15.44;100.00;98316.66;5221106;28;20221;-62
2022/07/01 10:36:28;;;;;;;4.60;4.30;;;14.90;99.90;;;15.48;100.00;98315.09;5221624;28;20217;-63
2022/07/01 10:39:27;;;;;;;4.95;4.55;;;14.80;99.90;;;15.48;100.00;98307.34;5217998;28;20256;-62
2022/07/01 10:42:04;;;;;;;5.63;4.82;;;14.90;99.90;;;15.50;100.00;98301.47;5198147;28;20217;-62
2022/07/01 10:45:08;;;;;;;4.72;4.43;;;14.90;99.90;;;15.59;100.00;98300.13;5220412;28;20221;-63
2022/07/01 10:47:41;;;;;;;5.90;5.35;;;15.00;99.90;;;15.65;100.00;98311.59;5222088;28;20822;-64
2022/07/01 10:50:16;;;;;;;5.75;5.20;;;15.10;99.90;;;15.62;100.00;98318.28;5219255;28;20742;-64
2022/07/01 10:53:00;;;;;;;5.53;5.03;;;15.00;99.90;;;15.56;100.00;98324.03;5219987;28;20193;-63
2022/07/01 10:55:40;;;;;;;5.30;4.90;;;14.90;99.90;;;15.47;100.00;98331.38;5219531;28;20240;-63